Aérodrome :
LOGIN :

S'inscrire | Disclaimer

   EN    FR    IT 

 










Légende :    VFR   VFR Marginal   IFR   IFR Intensif   IFR Très Intensif
Visi : 
Plafond : 
>= 8 km
>= 3000ft
5 à 8 km
1000 à 3000 ft
1500m à 5 km
500 à 1000 ft
800 à 1500m
200 à 500 ft
< 800m
< 200 ft
Symboles :   Orages  Brouillard  Fortes neiges  Fortes précipitations  Vent > 20 kt
SIGMETs :   Divers  Orages  Givrage  Turbulence  Onde Orograph.  Cendres Volcan.






- Altitude de l'aérodrome : 362 ft
- Code IATA : WAW


EPWA - Warsaw Okecie

DERNIER METAR :
  • 090730Z 21005KT 160V250 9999 SCT023TCU 17/11 Q1018 NOSIG

METARs EXPIRÉS :
  • 090700Z 20004KT 160V300 9999 SCT021 18/12 Q1018 NOSIG
  • 090630Z VRB02KT 9999 FEW020 17/12 Q1018 NOSIG
  • 090600Z 26003KT 230V290 9999 FEW016 16/12 Q1018 NOSIG
  • 090530Z 26004KT 230V300 CAVOK 14/12 Q1018 NOSIG
  • 090500Z 27003KT 220V320 CAVOK 14/12 Q1018 NOSIG

TAF TAF EPWA
Valide du 09 à 06h jusqu'au 10 à 06h UTC


090530Z 0906/1006 25006KT CAVOK
TEMPO 0909/0920 SCT040TCU
PROB40 0921/1005 4500 -RA BR BKN014
PROB40
TEMPO 0923/1005 BKN006



MET'MAP, la Météo Aéronautique d'un coup d'oeil ! - Copyright ORBIFLY Décembre 2007 - Disclaimer

ORBIFLY MET'MAP TEAM :

Programmation & Développement : Alexandra Zaïnal
Sur une idée originale de : Baudouin d'Aumeries
Assistance à la programmation : Marc-Olivier Méhu
Soutien technique & logistique : Manuel Goepfert

Contact : metmap@orbifly.com




SOURCES & CREDITS :

   NOAA